Werte bis 5 Uhr SommerzeitDiagramme Frankenhausen: Tagesdaten Monatsdaten WindroseCSV-Datei: Frankenhausen21.csv

Wetterdaten 2021 Station: Frankenhausen
Temperaturen in °C relative Nieder- Global- Wind Wind Wind- Sonnen-
Datum Boden Boden Luft Luft Luft Luft Feuchte schlag strahlung max richtung schein
20 cm 5 cm 20 cm 2 m 2 m max 2 m min % mm W/m2*d m/s m/s ° h

06.05.2021 8,4 6,6 1,4 3,5 4,2 2,9 89 0,0 0 2,3 5,4 --- ---
05.05.2021 8,6 8,6 6,4 7,0 10,3 4,2 73 0,9 4123 5,7 17,0 --- 9,6
04.05.2021 8,9 9,1 9,4 10,2 14,7 7,9 60 0,0 3238 6,8 20,9 --- 8,8
03.05.2021 8,7 9,1 7,3 7,9 12,8 1,4 65 0,0 4811 2,9 13,8 --- 11,3
02.05.2021 8,9 8,5 6,5 6,9 10,2 4,2 76 0,0 3213 4,1 11,6 --- 9,8
01.05.2021 9,1 9,5 8,2 8,6 12,1 5,2 84 0,0 3442 1,8 5,7 --- 10,5
30.04.2021 9,1 9,1 7,4 7,8 9,8 5,3 89 0,3 1771 1,9 11,2 --- 6,9
29.04.2021 10,2 11,2 10,0 10,4 15,2 7,3 82 5,6 4357 3,8 16,6 --- 8,5
28.04.2021 9,3 10,7 10,2 11,6 19,6 0,0 46 0,0 6040 1,9 7,2 --- 10,7
27.04.2021 8,4 9,1 7,3 8,1 13,7 0,7 42 0,0 7284 3,1 9,0 --- 11,9
26.04.2021 7,7 8,3 5,2 6,2 13,4 -2,7 54 0,0 7277 1,8 7,6 --- 12,2
25.04.2021 7,5 6,9 3,8 4,6 10,5 -0,5 72 0,0 5125 2,7 8,2 --- 12,1
24.04.2021 7,9 8,0 4,8 5,8 11,8 -0,8 76 0,0 5839 1,9 12,1 --- 11,1
23.04.2021 7,7 7,6 5,1 6,1 12,5 0,1 76 0,0 5423 2,3 7,4 --- 10,4
22.04.2021 8,3 7,9 5,6 6,1 11,2 1,1 67 0,0 5344 3,7 12,3 --- 10,4
21.04.2021 9,0 9,7 8,4 9,2 16,7 1,7 74 0,0 6044 3,0 10,4 --- 11,1
20.04.2021 8,7 9,9 9,0 9,9 16,7 3,5 82 0,0 5622 2,0 7,0 --- 11,0
19.04.2021 8,0 9,1 8,6 9,0 14,0 5,7 88 0,2 3275 1,3 6,5 --- 8,7
18.04.2021 6,8 7,5 7,8 8,4 13,7 4,0 88 1,8 2518 1,6 8,8 --- 6,7
17.04.2021 6,0 5,7 5,1 5,9 9,1 0,5 73 0,0 1944 2,2 8,3 --- 6,8
16.04.2021 5,9 6,1 5,9 6,3 11,0 0,5 65 0,0 5027 2,8 8,4 --- 10,7
15.04.2021 5,2 4,6 2,1 2,7 8,2 -2,1 82 0,0 3520 1,9 11,3 --- 9,8
14.04.2021 5,4 4,9 1,8 2,4 7,9 -1,3 92 0,9 4490 2,0 14,1 --- 9,6
13.04.2021 5,2 4,6 2,2 3,0 9,1 -1,6 82 0,0 4428 2,5 10,1 --- 9,3
12.04.2021 5,7 5,1 2,8 3,2 6,8 0,4 88 0,2 3382 3,1 8,6 --- 9,7
11.04.2021 6,9 6,9 6,0 6,6 13,0 0,6 98 10,5 1122 3,3 9,3 --- 2,2
10.04.2021 6,4 6,9 6,8 7,0 9,6 3,8 96 10,1 1991 2,1 7,5 --- 6,9
09.04.2021 5,0 5,2 5,9 6,8 13,1 0,7 65 0,1 4847 3,2 11,2 --- 10,2
08.04.2021 4,4 3,6 2,2 2,7 5,4 0,9 79 0,0 2289 3,8 9,5 --- 9,0
07.04.2021 4,3 3,3 1,1 1,3 4,5 -0,8 92 3,1 1746 4,7 19,0 --- 6,7
06.04.2021 4,4 3,0 0,4 0,6 4,0 -1,4 92 1,2 3657 5,0 16,2 --- 7,8
05.04.2021 5,4 3,8 1,2 1,9 6,1 -0,9 91 3,4 1900 4,9 15,9 --- 5,4
04.04.2021 6,6 5,9 3,6 4,1 6,5 -0,1 82 0,0 2281 2,7 7,7 --- 8,7
03.04.2021 7,2 6,8 4,9 5,5 10,0 1,9 80 0,0 3549 3,7 8,8 --- 7,9
02.04.2021 8,1 7,9 6,1 6,3 10,1 4,4 78 0,0 3751 4,4 12,0 --- 7,8
01.04.2021 8,9 9,6 10,3 11,6 20,1 5,2 69 0,0 4793 3,2 11,6 --- 9,6
31.03.2021 8,3 9,3 11,7 13,8 24,4 5,0 52 0,0 5464 2,7 6,8 --- 10,6
30.03.2021 7,7 8,6 10,1 12,2 23,3 3,6 56 0,0 5501 1,9 6,5 --- 10,5
29.03.2021 7,2 8,4 11,3 13,1 21,0 7,3 50 0,0 5177 3,0 10,0 --- 10,2
28.03.2021 5,3 5,0 6,2 7,2 12,9 0,3 75 0,0 2351 3,4 13,0 --- 7,9
27.03.2021 6,6 6,2 4,9 5,9 11,0 0,7 82 2,6 2931 4,5 17,0 --- 6,9
26.03.2021 7,2 8,2 9,9 10,9 15,6 7,0 74 0,0 3804 3,1 10,7 --- 9,2
25.03.2021 5,9 6,6 7,8 8,9 15,6 2,9 77 0,0 2957 2,0 5,7 --- 9,1
24.03.2021 5,1 5,5 6,2 7,4 15,6 0,8 77 0,0 4957 2,5 7,2 --- 9,9
23.03.2021 5,0 5,2 5,1 5,8 10,1 3,0 84 0,0 1738 1,8 5,7 --- 7,0
22.03.2021 4,3 4,2 4,0 4,4 8,0 2,1 93 0,2 2069 3,8 10,4 --- 5,6
21.03.2021 4,2 4,0 4,3 4,7 6,9 3,2 85 0,0 1908 5,4 14,2 --- 7,2
20.03.2021 3,4 3,0 0,9 1,3 4,7 -3,5 59 0,0 4060 1,5 6,5 --- 8,7
19.03.2021 3,6 2,9 1,8 2,1 5,7 -0,4 83 0,1 3466 3,7 11,1 --- 9,0
18.03.2021 3,4 2,5 0,8 1,4 5,8 -2,4 94 0,8 2020 1,5 7,4 --- 5,6
17.03.2021 3,9 3,0 1,3 2,1 5,1 -0,6 88 0,0 1513 2,0 6,4 --- 4,2
16.03.2021 4,5 4,1 3,5 4,1 8,3 0,9 89 0,2 2708 4,2 12,1 --- 6,7
15.03.2021 4,6 4,3 4,0 4,4 7,0 2,6 93 1,8 1940 4,8 15,7 --- 6,4
14.03.2021 4,6 4,2 4,2 4,9 7,4 3,5 86 1,8 2042 4,5 11,1 --- 5,9
13.03.2021 5,0 4,7 4,9 5,7 7,8 3,6 88 4,2 1874 7,2 26,9 --- 6,0
12.03.2021 5,2 5,2 5,5 6,3 9,8 3,6 79 3,7 2851 6,0 17,0 --- 7,1
11.03.2021 5,0 5,5 7,1 7,9 13,7 4,9 86 4,0 2021 5,9 21,5 --- 5,5
10.03.2021 4,0 4,3 4,5 4,8 8,0 1,8 90 0,0 2073 2,1 10,9 --- 6,6
09.03.2021 3,3 2,5 1,3 1,5 3,1 -0,4 96 5,6 993 1,9 6,8 --- 3,4
08.03.2021 3,3 3,0 1,9 2,4 6,8 -0,2 82 0,3 3101 1,6 4,8 --- 6,6
07.03.2021 2,9 1,5 -0,7 0,0 4,0 -4,2 87 0,0 3070 2,1 8,7 --- 8,7
06.03.2021 3,3 2,2 -0,7 0,3 6,9 -4,8 85 0,0 4200 1,2 5,3 --- 9,6
05.03.2021 4,3 3,5 1,3 1,9 5,1 -2,3 83 0,1 2959 2,9 7,8 --- 7,9
04.03.2021 4,9 4,4 3,6 4,3 7,6 2,3 100 3,1 760 2,3 6,7 --- 2,3
03.03.2021 4,8 4,5 5,0 6,2 15,3 0,7 88 0,0 2634 2,7 6,6 --- 7,9
02.03.2021 4,8 4,7 4,0 4,8 15,0 -0,1 88 0,0 3171 1,6 5,1 --- 7,7
01.03.2021 4,9 4,5 3,5 4,1 10,6 1,3 99 0,1 1819 1,2 4,6 --- 5,9
28.02.2021 5,2 5,2 4,0 4,5 8,8 1,1 97 0,0 2583 1,2 5,4 --- 7,0
27.02.2021 5,0 4,1 3,0 3,5 4,4 2,4 99 0,0 739 2,3 5,9 --- 1,5
26.02.2021 6,5 6,3 6,0 6,9 9,0 2,8 91 3,3 1179 2,5 9,9 --- 3,2
25.02.2021 7,0 8,0 10,4 12,0 18,9 6,5 78 0,0 2955 2,2 7,0 --- 7,7
24.02.2021 6,7 8,1 11,6 13,2 18,4 8,1 77 0,0 2852 3,0 8,6 --- 7,9
23.02.2021 5,4 6,4 9,5 10,8 17,4 5,8 79 0,0 2700 2,8 10,1 --- 7,6
22.02.2021 4,5 4,6 6,6 7,9 14,1 2,1 80 0,0 2906 2,6 9,2 --- 7,3
21.02.2021 4,8 5,6 9,1 11,0 17,3 6,8 63 0,0 3145 3,4 12,3 --- 8,2
20.02.2021 3,7 4,4 7,6 8,8 15,6 3,3 83 0,0 2635 3,3 10,8 --- 7,1
19.02.2021 2,8 3,3 4,7 5,9 9,2 2,2 86 0,0 2749 2,8 12,6 --- 7,6
18.02.2021 1,4 1,1 4,2 5,3 7,8 1,8 90 0,0 1508 3,2 8,5 --- 5,8
17.02.2021 1,2 0,5 3,6 5,3 7,9 2,8 94 0,4 1875 2,4 7,1 --- 6,2
16.02.2021 1,4 0,6 2,3 3,2 6,3 0,3 96 0,0 1864 3,2 10,7 --- 6,0
15.02.2021 1,4 0,7 -3,7 -3,1 0,5 -8,3 75 1,9 940 4,0 12,0 --- 3,1
14.02.2021 1,5 0,7 -11,3 -10,0 -2,4 -18,4 86 0,0 2202 1,9 7,2 --- 7,8
13.02.2021 1,6 0,8 -16,1 -13,6 -5,5 -20,8 88 0,0 1768 0,6 3,1 --- 5,8
12.02.2021 1,6 0,8 -14,9 -12,4 -4,3 -18,2 87 0,0 2001 1,2 9,7 --- 7,1
11.02.2021 1,7 0,8 -8,7 -7,0 -3,1 -17,0 91 0,0 1759 1,7 5,8 --- 6,9
10.02.2021 1,8 0,9 -15,0 -13,9 -5,3 -23,2 92 0,0 1329 0,8 5,5 --- 5,4
09.02.2021 1,9 0,9 -13,7 -11,7 -8,2 -17,0 92 0,1 2396 1,0 2,7 --- 7,2
08.02.2021 2,1 1,0 -8,5 -8,4 -6,7 -10,3 92 7,8 1676 3,0 9,0 --- 5,2
07.02.2021 2,4 1,3 -5,3 -5,2 -1,8 -6,7 96 4,0 575 5,0 16,1 --- 1,4
06.02.2021 3,7 3,0 1,4 1,6 5,1 -1,9 100 0,4 275 3,6 13,8 --- ---
05.02.2021 3,9 3,5 3,6 4,3 5,4 2,4 98 5,3 352 1,7 8,4 --- ---
04.02.2021 4,7 5,2 5,8 6,7 9,1 3,1 90 1,4 1360 2,9 9,2 --- 5,3
03.02.2021 3,9 5,0 7,8 8,8 11,0 7,7 98 3,6 403 3,5 12,2 --- 0,1
02.02.2021 1,6 1,3 3,4 4,2 8,6 1,8 100 1,8 465 1,8 7,1 --- 0,3
01.02.2021 1,4 0,4 0,3 0,7 2,8 -1,4 98 0,1 757 1,9 5,6 --- 3,0
31.01.2021 1,8 0,7 -1,8 -1,3 1,8 -4,7 86 0,0 1940 2,1 7,5 --- 6,3
30.01.2021 2,7 2,1 0,4 0,8 6,6 -1,2 93 1,3 814 4,0 15,3 --- 3,0
29.01.2021 2,0 2,0 3,2 3,7 8,1 0,7 99 13,4 404 2,9 11,2 --- 0,8
28.01.2021 1,7 0,8 1,1 1,6 3,0 0,6 100 5,4 311 1,6 8,0 --- ---
27.01.2021 1,7 0,8 -0,1 0,5 1,7 -0,6 99 0,8 693 2,5 10,0 --- 2,1
26.01.2021 1,8 0,8 -0,1 0,4 1,5 -2,5 98 1,7 559 3,3 11,2 --- 1,4
25.01.2021 2,0 1,0 -2,5 -1,4 1,8 -5,0 99 0,1 1174 1,0 3,6 --- 5,6
24.01.2021 2,4 1,2 -0,1 0,6 1,9 -3,3 100 5,2 432 2,1 8,1 --- 0,6
23.01.2021 2,9 2,0 1,1 1,7 3,6 0,2 100 0,0 848 2,1 7,1 --- 2,6
22.01.2021 4,1 4,1 4,2 5,3 9,7 0,3 94 2,2 685 4,2 19,8 --- 2,0
21.01.2021 3,4 3,6 6,2 7,5 10,1 5,2 75 1,1 934 6,1 23,2 --- 3,0
20.01.2021 2,6 2,6 4,3 5,2 8,2 2,2 80 0,0 939 4,0 10,7 --- 2,9
19.01.2021 1,4 0,9 2,9 3,6 6,1 1,7 98 5,1 270 5,3 13,4 --- ---
18.01.2021 1,3 0,4 1,4 2,3 3,7 -0,3 98 0,3 530 2,7 8,9 --- 0,7
17.01.2021 1,4 0,4 -1,9 -1,7 -0,3 -3,1 96 1,1 779 2,3 6,9 --- 3,2
16.01.2021 1,6 0,6 -1,6 -1,3 0,2 -2,3 80 0,0 426 2,5 8,0 --- ---
15.01.2021 1,7 0,7 -1,1 -0,6 0,4 -2,3 96 0,0 378 2,3 7,9 --- 0,3
14.01.2021 1,9 0,9 -0,1 0,4 1,2 -0,2 93 0,0 510 3,4 14,7 --- 0,9
13.01.2021 2,0 1,1 1,3 2,1 3,3 0,7 92 1,0 425 5,2 15,0 --- 0,7
12.01.2021 2,1 1,4 1,3 1,9 4,2 0,3 99 4,7 361 4,0 11,0 --- 0,2
11.01.2021 2,0 1,0 -0,2 0,2 1,4 -1,2 90 0,0 795 3,6 10,0 --- 3,3
10.01.2021 2,1 1,1 -0,2 0,4 1,9 -0,5 98 0,0 636 1,5 5,6 --- 2,0
09.01.2021 2,2 1,2 -0,4 0,1 0,9 -0,6 99 0,0 435 1,6 6,0 --- ---
08.01.2021 2,2 1,2 0,1 0,4 0,8 -0,1 100 1,5 242 1,6 7,5 --- ---
07.01.2021 2,4 1,3 0,1 0,6 1,8 -0,1 98 0,5 391 1,9 6,4 --- 0,1
06.01.2021 2,7 1,8 0,7 1,1 1,8 0,1 100 0,2 159 2,6 6,0 --- ---
05.01.2021 2,6 1,6 0,5 0,9 1,7 0,4 100 0,0 192 2,3 5,4 --- ---
04.01.2021 2,6 1,6 -0,1 0,5 1,0 0,1 100 0,0 274 1,2 3,6 --- ---
03.01.2021 2,9 1,9 0,8 1,3 2,3 0,1 93 1,9 293 2,7 8,2 --- ---
02.01.2021 3,0 2,3 1,5 2,0 3,4 1,2 98 0,0 393 1,2 4,6 --- ---
01.01.2021 2,9 2,0 0,8 1,4 3,0 0,5 99 0,0 380 0,9 3,6 --- 0,6

Mittelwerte (Temperaturen, Strahlung, rel. Feuchte, Wind), Summe (Regen) für 2021
4,6 4,3 2,9 3,7 86 145 2.327 2,9

Landesbetrieb Landwirtschaft Hessen 2009

      Werte bis 5 Uhr SommerzeitCSV-Datei: Frankenhausen21.csvDiagramm: Frankenhausen